Date,TemperatureHighF,TemperatureAvgF,TemperatureLowF,DewpointHighF,DewpointAvgF,DewpointLowF,HumidityHigh,HumidityAvg,HumidityLow,PressureMaxIn,PressureMinIn,WindSpeedMaxMPH,WindSpeedAvgMPH,GustSpeedMaxMPH,PrecipitationSumIn
2012-12-1,70,43,28,-100,-100,-100,0,0,100,0.00,40.00,0,-999,0,0.00
2012-12-2,73,47,31,-100,-100,-100,0,0,100,0.00,40.00,0,-999,0,0.00
2012-12-3,59,41,22,-100,-100,-100,0,0,100,0.00,40.00,0,-999,0,0.00
2012-12-4,61,36,19,-100,-100,-100,0,0,100,0.00,40.00,0,-999,0,0.00
2012-12-5,62,45,26,-100,-100,-100,0,0,100,0.00,40.00,0,-999,0,0.00
2012-12-6,50,39,23,-100,-100,-100,0,0,100,0.00,40.00,0,-999,0,0.00
2012-12-7,54,35,16,-100,-100,-100,0,0,100,0.00,40.00,0,-999,0,0.00
2012-12-8,45,29,15,-100,-100,-100,0,0,100,0.00,40.00,0,-999,0,0.00
2012-12-9,38,24,9,-100,-100,-100,0,0,100,0.00,40.00,0,-999,0,0.00
2012-12-10,43,24,6,-100,-100,-100,0,0,100,0.00,40.00,0,-999,0,0.00
2012-12-11,44,21,9,-100,-100,-100,0,0,100,0.00,40.00,0,-999,0,0.00
2012-12-12,54,36,23,-100,-100,-100,0,0,100,0.00,40.00,0,-999,0,0.00
2012-12-13,59,36,20,-100,-100,-100,0,0,100,0.00,40.00,0,-999,0,0.00
2012-12-14,49,31,9,-100,-100,-100,0,0,100,0.00,40.00,0,-999,0,0.37
2012-12-15,49,40,29,-100,-100,-100,0,0,100,0.00,40.00,0,-999,0,0.52
2012-12-16,39,32,25,-100,-100,-100,0,0,100,0.00,40.00,0,-999,0,0.01
2012-12-17,54,34,20,-100,-100,-100,0,0,100,0.00,40.00,0,-999,0,0.00
2012-12-18,51,38,23,-100,-100,-100,0,0,100,0.00,40.00,0,-999,0,0.00
2012-12-19,40,30,23,-100,-100,-100,0,0,100,0.00,40.00,0,-999,0,0.00
2012-12-20,32,21,16,-100,-100,-100,0,0,100,0.00,40.00,0,-999,0,0.00
2012-12-21,44,22,9,-100,-100,-100,0,0,100,0.00,40.00,0,-999,0,0.00
2012-12-22,42,24,9,-100,-100,-100,0,0,100,0.00,40.00,0,-999,0,0.00
2012-12-23,30,17,6,-100,-100,-100,0,0,100,0.00,40.00,0,-999,0,0.00
2012-12-24,18,12,5,-100,-100,-100,0,0,100,0.00,40.00,0,-999,0,0.00
2012-12-25,15,11,-2,-100,-100,-100,0,0,100,0.00,40.00,0,-999,0,0.00
2012-12-26,19,6,-6,-100,-100,-100,0,0,100,0.00,40.00,0,-999,0,0.00
2012-12-27,22,15,8,-100,-100,-100,0,0,100,0.00,40.00,0,-999,0,0.00
2012-12-28,19,9,3,-100,-100,-100,0,0,100,0.00,40.00,0,-999,0,0.00
2012-12-29,37,19,4,-100,-100,-100,0,0,100,0.00,40.00,0,-999,0,0.00
2012-12-30,34,27,22,-100,-100,-100,0,0,100,0.00,40.00,0,-999,0,0.00
2012-12-31,22,21,18,-100,-100,-100,0,0,100,0.00,40.00,0,-999,0,0.00